sensor_id;sensor_type;location;lat;lon;timestamp;pressure;altitude;pressure_sealevel;temperature;humidity
55914;BME280;58179;48.776;9.124;2023-04-08T00:01:44;97599.84;;;7.07;100.00
55914;BME280;58179;48.776;9.124;2023-04-08T00:04:10;97598.78;;;7.08;100.00
55914;BME280;58179;48.776;9.124;2023-04-08T00:06:40;97600.19;;;7.10;100.00
55914;BME280;58179;48.776;9.124;2023-04-08T00:09:06;97606.47;;;7.09;100.00
55914;BME280;58179;48.776;9.124;2023-04-08T00:11:32;97598.22;;;7.06;100.00
55914;BME280;58179;48.776;9.124;2023-04-08T00:13:59;97601.66;;;7.06;100.00
55914;BME280;58179;48.776;9.124;2023-04-08T00:16:25;97593.97;;;7.05;100.00
55914;BME280;58179;48.776;9.124;2023-04-08T00:18:51;97608.69;;;6.94;100.00
55914;BME280;58179;48.776;9.124;2023-04-08T00:21:17;97601.25;;;6.91;100.00
55914;BME280;58179;48.776;9.124;2023-04-08T00:23:46;97597.81;;;6.90;100.00
55914;BME280;58179;48.776;9.124;2023-04-08T00:26:12;97600.44;;;6.90;100.00
55914;BME280;58179;48.776;9.124;2023-04-08T00:28:38;97596.81;;;6.91;100.00
55914;BME280;58179;48.776;9.124;2023-04-08T00:31:04;97592.69;;;6.95;100.00
55914;BME280;58179;48.776;9.124;2023-04-08T00:33:30;97601.16;;;6.97;100.00
55914;BME280;58179;48.776;9.124;2023-04-08T00:35:57;97606.44;;;6.97;100.00
55914;BME280;58179;48.776;9.124;2023-04-08T00:38:23;97595.31;;;6.95;100.00
55914;BME280;58179;48.776;9.124;2023-04-08T00:40:50;97599.28;;;6.86;100.00
55914;BME280;58179;48.776;9.124;2023-04-08T00:43:16;97605.34;;;6.87;100.00
55914;BME280;58179;48.776;9.124;2023-04-08T00:45:45;97610.38;;;6.88;100.00
55914;BME280;58179;48.776;9.124;2023-04-08T00:48:11;97611.53;;;6.92;100.00
55914;BME280;58179;48.776;9.124;2023-04-08T00:50:37;97609.97;;;6.91;100.00
55914;BME280;58179;48.776;9.124;2023-04-08T00:53:03;97614.63;;;6.89;100.00
55914;BME280;58179;48.776;9.124;2023-04-08T00:55:29;97615.78;;;6.93;100.00
55914;BME280;58179;48.776;9.124;2023-04-08T00:57:57;97617.03;;;6.91;100.00
55914;BME280;58179;48.776;9.124;2023-04-08T01:00:24;97624.69;;;6.92;100.00
55914;BME280;58179;48.776;9.124;2023-04-08T01:03:00;97616.81;;;6.92;100.00
55914;BME280;58179;48.776;9.124;2023-04-08T01:05:35;97622.31;;;6.91;100.00
55914;BME280;58179;48.776;9.124;2023-04-08T01:08:06;97616.25;;;6.90;100.00
55914;BME280;58179;48.776;9.124;2023-04-08T01:10:34;97619.69;;;6.91;100.00
55914;BME280;58179;48.776;9.124;2023-04-08T01:13:07;97619.91;;;6.89;100.00
55914;BME280;58179;48.776;9.124;2023-04-08T01:15:37;97626.75;;;6.90;100.00
55914;BME280;58179;48.776;9.124;2023-04-08T01:18:07;97621.72;;;6.89;100.00
55914;BME280;58179;48.776;9.124;2023-04-08T01:20:34;97617.25;;;6.89;100.00
55914;BME280;58179;48.776;9.124;2023-04-08T01:23:07;97613.44;;;6.85;100.00
55914;BME280;58179;48.776;9.124;2023-04-08T01:25:37;97618.16;;;6.83;100.00
55914;BME280;58179;48.776;9.124;2023-04-08T01:28:07;97614.94;;;6.81;100.00
55914;BME280;58179;48.776;9.124;2023-04-08T01:30:35;97618.59;;;6.80;100.00
55914;BME280;58179;48.776;9.124;2023-04-08T01:33:03;97623.84;;;6.80;100.00
55914;BME280;58179;48.776;9.124;2023-04-08T01:35:30;97616.75;;;6.81;100.00
55914;BME280;58179;48.776;9.124;2023-04-08T01:37:58;97615.53;;;6.83;100.00
55914;BME280;58179;48.776;9.124;2023-04-08T01:40:25;97621.81;;;6.82;100.00
55914;BME280;58179;48.776;9.124;2023-04-08T01:42:53;97617.09;;;6.84;100.00
55914;BME280;58179;48.776;9.124;2023-04-08T01:45:22;97613.09;;;6.82;100.00
55914;BME280;58179;48.776;9.124;2023-04-08T01:47:49;97617.34;;;6.83;100.00
55914;BME280;58179;48.776;9.124;2023-04-08T01:50:16;97613.53;;;6.79;100.00
55914;BME280;58179;48.776;9.124;2023-04-08T01:52:43;97605.63;;;6.79;100.00
55914;BME280;58179;48.776;9.124;2023-04-08T01:55:10;97613.09;;;6.82;100.00
55914;BME280;58179;48.776;9.124;2023-04-08T01:57:37;97609.22;;;6.84;100.00
55914;BME280;58179;48.776;9.124;2023-04-08T02:00:09;97609.53;;;6.76;100.00
55914;BME280;58179;48.776;9.124;2023-04-08T02:02:38;97607.69;;;6.77;100.00
55914;BME280;58179;48.776;9.124;2023-04-08T02:05:06;97603.31;;;6.71;100.00
55914;BME280;58179;48.776;9.124;2023-04-08T02:07:33;97615.66;;;6.70;100.00
55914;BME280;58179;48.776;9.124;2023-04-08T02:09:59;97612.69;;;6.67;100.00
55914;BME280;58179;48.776;9.124;2023-04-08T02:12:25;97613.31;;;6.62;100.00
55914;BME280;58179;48.776;9.124;2023-04-08T02:14:53;97618.22;;;6.58;100.00
55914;BME280;58179;48.776;9.124;2023-04-08T02:17:30;97612.97;;;6.58;100.00
55914;BME280;58179;48.776;9.124;2023-04-08T02:20:05;97623.50;;;6.58;100.00
55914;BME280;58179;48.776;9.124;2023-04-08T02:22:39;97622.69;;;6.58;100.00
55914;BME280;58179;48.776;9.124;2023-04-08T02:25:10;97616.63;;;6.57;100.00
55914;BME280;58179;48.776;9.124;2023-04-08T02:27:39;97625.31;;;6.58;100.00
55914;BME280;58179;48.776;9.124;2023-04-08T02:30:09;97616.84;;;6.56;100.00
55914;BME280;58179;48.776;9.124;2023-04-08T02:32:36;97620.13;;;6.51;100.00
55914;BME280;58179;48.776;9.124;2023-04-08T02:35:05;97619.53;;;6.49;100.00
55914;BME280;58179;48.776;9.124;2023-04-08T02:37:31;97617.00;;;6.43;100.00
55914;BME280;58179;48.776;9.124;2023-04-08T02:39:57;97611.59;;;6.38;100.00
55914;BME280;58179;48.776;9.124;2023-04-08T02:42:23;97617.69;;;6.32;100.00
55914;BME280;58179;48.776;9.124;2023-04-08T02:44:50;97622.00;;;6.26;100.00
55914;BME280;58179;48.776;9.124;2023-04-08T02:47:16;97623.81;;;6.26;100.00
55914;BME280;58179;48.776;9.124;2023-04-08T02:49:42;97615.94;;;6.26;100.00
55914;BME280;58179;48.776;9.124;2023-04-08T02:52:09;97620.56;;;6.30;100.00
55914;BME280;58179;48.776;9.124;2023-04-08T02:54:35;97625.00;;;6.30;100.00
55914;BME280;58179;48.776;9.124;2023-04-08T02:57:01;97621.38;;;6.31;100.00
55914;BME280;58179;48.776;9.124;2023-04-08T02:59:27;97621.78;;;6.28;100.00
55914;BME280;58179;48.776;9.124;2023-04-08T03:01:53;97623.63;;;6.27;100.00
55914;BME280;58179;48.776;9.124;2023-04-08T03:04:19;97618.94;;;6.29;100.00
55914;BME280;58179;48.776;9.124;2023-04-08T03:06:45;97617.13;;;6.30;100.00
55914;BME280;58179;48.776;9.124;2023-04-08T03:09:12;97619.91;;;6.35;100.00
55914;BME280;58179;48.776;9.124;2023-04-08T03:11:38;97614.03;;;6.33;100.00
55914;BME280;58179;48.776;9.124;2023-04-08T03:14:06;97616.91;;;6.31;100.00
55914;BME280;58179;48.776;9.124;2023-04-08T03:16:32;97620.31;;;6.32;100.00
55914;BME280;58179;48.776;9.124;2023-04-08T03:18:58;97619.31;;;6.33;100.00
55914;BME280;58179;48.776;9.124;2023-04-08T03:21:24;97617.94;;;6.30;100.00
55914;BME280;58179;48.776;9.124;2023-04-08T03:23:51;97621.38;;;6.31;100.00
55914;BME280;58179;48.776;9.124;2023-04-08T03:26:18;97621.38;;;6.31;100.00
55914;BME280;58179;48.776;9.124;2023-04-08T03:28:44;97614.50;;;6.30;100.00
55914;BME280;58179;48.776;9.124;2023-04-08T03:31:10;97615.88;;;6.32;100.00
55914;BME280;58179;48.776;9.124;2023-04-08T03:33:36;97621.94;;;6.33;100.00
55914;BME280;58179;48.776;9.124;2023-04-08T03:36:02;97620.31;;;6.32;100.00
55914;BME280;58179;48.776;9.124;2023-04-08T03:38:28;97615.31;;;6.30;100.00
55914;BME280;58179;48.776;9.124;2023-04-08T03:40:54;97614.28;;;6.31;100.00
55914;BME280;58179;48.776;9.124;2023-04-08T03:43:21;97621.13;;;6.32;100.00
55914;BME280;58179;48.776;9.124;2023-04-08T03:45:47;97624.34;;;6.34;100.00
55914;BME280;58179;48.776;9.124;2023-04-08T03:48:13;97624.16;;;6.36;100.00
55914;BME280;58179;48.776;9.124;2023-04-08T03:50:39;97623.13;;;6.37;100.00
55914;BME280;58179;48.776;9.124;2023-04-08T03:53:05;97622.09;;;6.38;100.00
55914;BME280;58179;48.776;9.124;2023-04-08T03:55:31;97624.72;;;6.38;100.00
55914;BME280;58179;48.776;9.124;2023-04-08T03:57:57;97622.91;;;6.38;100.00
55914;BME280;58179;48.776;9.124;2023-04-08T04:00:24;97625.31;;;6.40;100.00
55914;BME280;58179;48.776;9.124;2023-04-08T04:02:50;97620.84;;;6.40;100.00
55914;BME280;58179;48.776;9.124;2023-04-08T04:05:16;97636.63;;;6.40;100.00
55914;BME280;58179;48.776;9.124;2023-04-08T04:07:42;97620.84;;;6.40;100.00
55914;BME280;58179;48.776;9.124;2023-04-08T04:10:09;97632.75;;;6.43;100.00
55914;BME280;58179;48.776;9.124;2023-04-08T04:12:35;97632.75;;;6.43;100.00
55914;BME280;58179;48.776;9.124;2023-04-08T04:15:01;97628.09;;;6.45;100.00
55914;BME280;58179;48.776;9.124;2023-04-08T04:17:28;97633.16;;;6.46;100.00
55914;BME280;58179;48.776;9.124;2023-04-08T04:19:54;97628.44;;;6.48;100.00
55914;BME280;58179;48.776;9.124;2023-04-08T04:22:20;97635.53;;;6.48;100.00
55914;BME280;58179;48.776;9.124;2023-04-08T04:24:46;97626.84;;;6.47;100.00
55914;BME280;58179;48.776;9.124;2023-04-08T04:27:13;97636.34;;;6.48;100.00
55914;BME280;58179;48.776;9.124;2023-04-08T04:29:39;97627.44;;;6.49;100.00
55914;BME280;58179;48.776;9.124;2023-04-08T04:32:05;97629.25;;;6.49;100.00
55914;BME280;58179;48.776;9.124;2023-04-08T04:34:32;97631.06;;;6.48;100.00
55914;BME280;58179;48.776;9.124;2023-04-08T04:36:58;97632.16;;;6.41;100.00
55914;BME280;58179;48.776;9.124;2023-04-08T04:39:24;97630.00;;;6.38;100.00
55914;BME280;58179;48.776;9.124;2023-04-08T04:41:50;97637.72;;;6.33;100.00
55914;BME280;58179;48.776;9.124;2023-04-08T04:44:16;97638.97;;;6.30;100.00
55914;BME280;58179;48.776;9.124;2023-04-08T04:46:42;97640.41;;;6.26;100.00
55914;BME280;58179;48.776;9.124;2023-04-08T04:49:08;97634.00;;;6.22;100.00
55914;BME280;58179;48.776;9.124;2023-04-08T04:51:35;97646.38;;;6.15;100.00
55914;BME280;58179;48.776;9.124;2023-04-08T04:54:02;97636.28;;;6.12;100.00
55914;BME280;58179;48.776;9.124;2023-04-08T04:56:28;97642.16;;;6.14;100.00
55914;BME280;58179;48.776;9.124;2023-04-08T04:58:54;97647.41;;;6.14;100.00
55914;BME280;58179;48.776;9.124;2023-04-08T05:01:20;97644.63;;;6.09;100.00
55914;BME280;58179;48.776;9.124;2023-04-08T05:03:46;97653.28;;;6.09;100.00
55914;BME280;58179;48.776;9.124;2023-04-08T05:06:11;97656.72;;;6.10;100.00
55914;BME280;58179;48.776;9.124;2023-04-08T05:08:39;97652.88;;;6.12;100.00
55914;BME280;58179;48.776;9.124;2023-04-08T05:11:08;97660.53;;;6.14;100.00
55914;BME280;58179;48.776;9.124;2023-04-08T05:13:35;97653.88;;;6.11;100.00
55914;BME280;58179;48.776;9.124;2023-04-08T05:16:00;97662.22;;;6.08;100.00
55914;BME280;58179;48.776;9.124;2023-04-08T05:18:26;97663.25;;;6.07;100.00
55914;BME280;58179;48.776;9.124;2023-04-08T05:20:52;97659.81;;;6.07;100.00
55914;BME280;58179;48.776;9.124;2023-04-08T05:23:18;97668.09;;;6.04;100.00
55914;BME280;58179;48.776;9.124;2023-04-08T05:25:45;97668.56;;;6.01;100.00
55914;BME280;58179;48.776;9.124;2023-04-08T05:28:11;97661.09;;;5.98;100.00
55914;BME280;58179;48.776;9.124;2023-04-08T05:30:37;97665.53;;;5.97;100.00
55914;BME280;58179;48.776;9.124;2023-04-08T05:33:03;97672.19;;;6.00;100.00
55914;BME280;58179;48.776;9.124;2023-04-08T05:35:29;97674.00;;;5.99;100.00
55914;BME280;58179;48.776;9.124;2023-04-08T05:37:55;97672.19;;;6.00;100.00
55914;BME280;58179;48.776;9.124;2023-04-08T05:40:21;97677.38;;;6.06;100.00
55914;BME280;58179;48.776;9.124;2023-04-08T05:42:48;97675.13;;;6.10;100.00
55914;BME280;58179;48.776;9.124;2023-04-08T05:45:14;97683.41;;;6.13;100.00
55914;BME280;58179;48.776;9.124;2023-04-08T05:47:40;97686.38;;;6.17;100.00
55914;BME280;58179;48.776;9.124;2023-04-08T05:50:08;97688.16;;;6.23;100.00
55914;BME280;58179;48.776;9.124;2023-04-08T05:52:34;97691.53;;;6.30;100.00
55914;BME280;58179;48.776;9.124;2023-04-08T05:55:00;97691.09;;;6.33;100.00
55914;BME280;58179;48.776;9.124;2023-04-08T05:57:26;97694.13;;;6.37;100.00
55914;BME280;58179;48.776;9.124;2023-04-08T05:59:53;97690.59;;;6.43;100.00
55914;BME280;58179;48.776;9.124;2023-04-08T06:02:19;97688.56;;;6.45;100.00
55914;BME280;58179;48.776;9.124;2023-04-08T06:04:45;97696.81;;;6.48;100.00
55914;BME280;58179;48.776;9.124;2023-04-08T06:07:11;97701.88;;;6.50;100.00
55914;BME280;58179;48.776;9.124;2023-04-08T06:09:37;97711.72;;;6.54;100.00
55914;BME280;58179;48.776;9.124;2023-04-08T06:12:03;97707.28;;;6.55;100.00
55914;BME280;58179;48.776;9.124;2023-04-08T06:14:30;97710.28;;;6.58;100.00
55914;BME280;58179;48.776;9.124;2023-04-08T06:16:57;97714.31;;;6.61;100.00
55914;BME280;58179;48.776;9.124;2023-04-08T06:19:23;97712.31;;;6.56;100.00
55914;BME280;58179;48.776;9.124;2023-04-08T06:21:49;97709.69;;;6.56;100.00
55914;BME280;58179;48.776;9.124;2023-04-08T06:24:16;97711.09;;;6.59;100.00
55914;BME280;58179;48.776;9.124;2023-04-08T06:26:42;97718.78;;;6.60;100.00
55914;BME280;58179;48.776;9.124;2023-04-08T06:29:08;97715.69;;;6.64;100.00
55914;BME280;58179;48.776;9.124;2023-04-08T06:31:33;97715.25;;;6.67;100.00
55914;BME280;58179;48.776;9.124;2023-04-08T06:34:01;97714.81;;;6.70;100.00
55914;BME280;58179;48.776;9.124;2023-04-08T06:36:27;97721.69;;;6.71;100.00
55914;BME280;58179;48.776;9.124;2023-04-08T06:38:53;97715.78;;;6.75;100.00
55914;BME280;58179;48.776;9.124;2023-04-08T06:41:19;97721.78;;;6.82;100.00
55914;BME280;58179;48.776;9.124;2023-04-08T06:43:45;97727.41;;;6.86;100.00
55914;BME280;58179;48.776;9.124;2023-04-08T06:46:11;97727.78;;;6.89;100.00
55914;BME280;58179;48.776;9.124;2023-04-08T06:48:37;97730.63;;;6.88;100.00
55914;BME280;58179;48.776;9.124;2023-04-08T06:51:05;97725.16;;;6.89;100.00
55914;BME280;58179;48.776;9.124;2023-04-08T06:53:32;97728.41;;;6.85;100.00
55914;BME280;58179;48.776;9.124;2023-04-08T06:55:58;97727.41;;;6.86;100.00
55914;BME280;58179;48.776;9.124;2023-04-08T06:58:24;97727.56;;;6.91;100.00
55914;BME280;58179;48.776;9.124;2023-04-08T07:00:50;97743.28;;;6.97;100.00
55914;BME280;58179;48.776;9.124;2023-04-08T07:03:18;97738.22;;;6.96;100.00
55914;BME280;58179;48.776;9.124;2023-04-08T07:05:44;97737.56;;;7.00;100.00
55914;BME280;58179;48.776;9.124;2023-04-08T07:08:11;97743.19;;;7.04;100.00
55914;BME280;58179;48.776;9.124;2023-04-08T07:10:37;97737.28;;;7.09;100.00
55914;BME280;58179;48.776;9.124;2023-04-08T07:13:03;97739.69;;;7.10;100.00
55914;BME280;58179;48.776;9.124;2023-04-08T07:15:29;97741.31;;;7.11;100.00
55914;BME280;58179;48.776;9.124;2023-04-08T07:17:55;97744.53;;;7.13;100.00
55914;BME280;58179;48.776;9.124;2023-04-08T07:20:21;97744.44;;;7.20;100.00
55914;BME280;58179;48.776;9.124;2023-04-08T07:22:47;97748.97;;;7.31;100.00
55914;BME280;58179;48.776;9.124;2023-04-08T07:25:15;97755.53;;;7.22;100.00
55914;BME280;58179;48.776;9.124;2023-04-08T07:27:41;97746.91;;;7.33;100.00
55914;BME280;58179;48.776;9.124;2023-04-08T07:30:08;97762.75;;;7.45;100.00
55914;BME280;58179;48.776;9.124;2023-04-08T07:32:34;97762.47;;;7.53;100.00
55914;BME280;58179;48.776;9.124;2023-04-08T07:35:01;97759.97;;;7.58;100.00
55914;BME280;58179;48.776;9.124;2023-04-08T07:37:28;97754.75;;;7.69;100.00
55914;BME280;58179;48.776;9.124;2023-04-08T07:39:54;97753.28;;;7.73;100.00
55914;BME280;58179;48.776;9.124;2023-04-08T07:42:22;97761.91;;;7.81;100.00
55914;BME280;58179;48.776;9.124;2023-04-08T07:44:48;97755.19;;;7.96;100.00
55914;BME280;58179;48.776;9.124;2023-04-08T07:47:14;97765.97;;;7.95;100.00
55914;BME280;58179;48.776;9.124;2023-04-08T07:49:39;97770.13;;;8.02;100.00
55914;BME280;58179;48.776;9.124;2023-04-08T07:52:06;97765.06;;;8.12;100.00
55914;BME280;58179;48.776;9.124;2023-04-08T07:54:32;97773.69;;;8.20;100.00
55914;BME280;58179;48.776;9.124;2023-04-08T07:56:59;97764.31;;;8.24;100.00
55914;BME280;58179;48.776;9.124;2023-04-08T07:59:28;97772.75;;;8.32;100.00
55914;BME280;58179;48.776;9.124;2023-04-08T08:01:54;97769.66;;;8.47;100.00
55914;BME280;58179;48.776;9.124;2023-04-08T08:04:20;97763.25;;;8.54;100.00
55914;BME280;58179;48.776;9.124;2023-04-08T08:06:46;97768.31;;;8.56;100.00
55914;BME280;58179;48.776;9.124;2023-04-08T08:09:12;97762.44;;;8.66;100.00
55914;BME280;58179;48.776;9.124;2023-04-08T08:11:38;97772.66;;;8.74;100.00
55914;BME280;58179;48.776;9.124;2023-04-08T08:14:04;97774.63;;;8.78;100.00
55914;BME280;58179;48.776;9.124;2023-04-08T08:16:32;97769.53;;;8.88;100.00
55914;BME280;58179;48.776;9.124;2023-04-08T08:18:58;97779.09;;;9.01;100.00
55914;BME280;58179;48.776;9.124;2023-04-08T08:21:25;97779.50;;;9.10;100.00
55914;BME280;58179;48.776;9.124;2023-04-08T08:23:53;97779.41;;;9.16;100.00
55914;BME280;58179;48.776;9.124;2023-04-08T08:26:19;97782.97;;;9.22;100.00
55914;BME280;58179;48.776;9.124;2023-04-08T08:28:46;97785.25;;;9.18;100.00
55914;BME280;58179;48.776;9.124;2023-04-08T08:31:11;97782.59;;;9.30;100.00
55914;BME280;58179;48.776;9.124;2023-04-08T08:33:39;97788.91;;;9.29;100.00
55914;BME280;58179;48.776;9.124;2023-04-08T08:36:05;97790.97;;;9.39;100.00
55914;BME280;58179;48.776;9.124;2023-04-08T08:38:31;97791.88;;;9.44;100.00
55914;BME280;58179;48.776;9.124;2023-04-08T08:40:58;97795.53;;;9.43;100.00
55914;BME280;58179;48.776;9.124;2023-04-08T08:43:25;97799.00;;;9.44;100.00
55914;BME280;58179;48.776;9.124;2023-04-08T08:45:52;97797.47;;;9.59;100.00
55914;BME280;58179;48.776;9.124;2023-04-08T08:48:18;97799.25;;;9.70;100.00
55914;BME280;58179;48.776;9.124;2023-04-08T08:50:45;97799.03;;;9.72;100.00
55914;BME280;58179;48.776;9.124;2023-04-08T08:53:11;97798.13;;;9.66;100.00
55914;BME280;58179;48.776;9.124;2023-04-08T08:55:37;97790.41;;;9.77;100.00
55914;BME280;58179;48.776;9.124;2023-04-08T08:58:05;97798.13;;;9.95;100.00
55914;BME280;58179;48.776;9.124;2023-04-08T09:00:36;97800.03;;;9.83;100.00
55914;BME280;58179;48.776;9.124;2023-04-08T09:03:15;97797.81;;;9.91;100.00
55914;BME280;58179;48.776;9.124;2023-04-08T09:05:54;97794.25;;;9.57;100.00
55914;BME280;58179;48.776;9.124;2023-04-08T09:08:28;97797.38;;;9.83;100.00
55914;BME280;58179;48.776;9.124;2023-04-08T09:10:54;97796.81;;;9.81;100.00
55914;BME280;58179;48.776;9.124;2023-04-08T09:13:21;97804.38;;;9.89;100.00
55914;BME280;58179;48.776;9.124;2023-04-08T09:16:00;97804.81;;;10.26;100.00
55914;BME280;58179;48.776;9.124;2023-04-08T09:18:28;97812.78;;;10.42;100.00
55914;BME280;58179;48.776;9.124;2023-04-08T09:20:55;97805.44;;;10.33;100.00
55914;BME280;58179;48.776;9.124;2023-04-08T09:23:21;97812.53;;;10.44;100.00
55914;BME280;58179;48.776;9.124;2023-04-08T09:31:00;97813.84;;;10.75;100.00
55914;BME280;58179;48.776;9.124;2023-04-08T09:33:31;97813.50;;;10.88;100.00
55914;BME280;58179;48.776;9.124;2023-04-08T09:36:07;97811.72;;;10.94;100.00
55914;BME280;58179;48.776;9.124;2023-04-08T09:38:34;97814.38;;;10.94;100.00
